createdAt,value
2022-11-19T00:02:31.880Z,21.77
2022-11-19T00:36:46.147Z,18.03
2022-11-19T00:39:57.818Z,18.18
2022-11-19T00:43:23.904Z,19.28
2022-11-19T00:49:36.087Z,17.20
2022-11-19T00:52:47.895Z,17.75
2022-11-19T00:59:00.961Z,16.65
2022-11-19T01:02:12.760Z,14.80
2022-11-19T01:05:24.568Z,17.23
2022-11-19T01:08:36.814Z,20.65
2022-11-19T01:11:48.924Z,18.08
2022-11-19T01:15:02.248Z,18.48
2022-11-19T01:24:14.937Z,17.50
2022-11-19T01:27:28.048Z,15.10
2022-11-19T01:36:39.911Z,15.78
2022-11-19T01:39:51.654Z,16.68
2022-11-19T01:43:03.444Z,16.53
2022-11-19T02:31:15.269Z,18.93
2022-11-19T02:34:32.392Z,17.75
2022-11-19T02:37:49.722Z,16.55
2022-11-19T03:18:37.125Z,17.48
2022-11-19T03:40:23.430Z,16.90
2022-11-19T03:43:39.586Z,20.47
2022-11-19T04:01:00.008Z,19.07
2022-11-19T04:04:26.723Z,18.70
2022-11-19T04:07:38.535Z,19.75
2022-11-19T04:10:50.583Z,18.18
2022-11-19T04:14:04.247Z,17.78
2022-11-19T04:32:36.958Z,20.50
2022-11-19T04:35:51.685Z,20.38
2022-11-19T04:39:03.984Z,18.68
2022-11-19T04:42:15.793Z,18.23
2022-11-19T04:45:27.883Z,19.90
2022-11-19T04:48:39.886Z,18.10
2022-11-19T04:54:52.237Z,17.23
2022-11-19T04:58:04.066Z,20.85
2022-11-19T05:01:16.674Z,20.85
2022-11-19T05:04:33.645Z,22.50
2022-11-19T05:16:46.130Z,22.25
2022-11-19T05:20:00.102Z,22.38
2022-11-19T05:32:12.741Z,20.43
2022-11-19T05:35:24.961Z,20.60
2022-11-19T05:38:37.667Z,21.83
2022-11-19T05:41:49.269Z,21.60
2022-11-19T05:45:01.055Z,24.25
2022-11-19T05:48:13.628Z,25.88
2022-11-19T05:51:25.923Z,21.08
2022-11-19T05:54:37.686Z,20.63
2022-11-19T05:57:49.890Z,22.68
2022-11-19T06:01:04.707Z,25.08
2022-11-19T06:04:17.374Z,23.58
2022-11-19T06:07:29.253Z,26.38
2022-11-19T06:10:42.612Z,94.65
2022-11-19T06:13:54.249Z,33.73
2022-11-19T06:17:06.721Z,23.53
2022-11-19T06:20:19.214Z,21.68
2022-11-19T06:23:31.522Z,21.05
2022-11-19T06:26:43.729Z,23.23
2022-11-19T06:29:56.441Z,22.30
2022-11-19T06:33:08.366Z,21.10
2022-11-19T06:36:20.594Z,27.73
2022-11-19T06:39:32.456Z,26.93
2022-11-19T06:42:48.410Z,56.45
2022-11-19T06:45:58.107Z,45.23
2022-11-19T06:49:12.216Z,24.93
2022-11-19T06:52:24.048Z,24.33
2022-11-19T06:55:35.907Z,28.48
2022-11-19T06:58:48.051Z,30.03
2022-11-19T07:01:59.810Z,26.35
2022-11-19T07:05:12.953Z,21.25
2022-11-19T07:08:24.680Z,26.45
2022-11-19T07:11:36.664Z,29.60
2022-11-19T07:14:48.518Z,28.93
2022-11-19T07:18:01.128Z,23.30
2022-11-19T07:21:13.392Z,19.88
2022-11-19T07:24:26.986Z,19.95
2022-11-19T07:27:38.855Z,20.15
2022-11-19T07:30:50.741Z,19.78
2022-11-19T07:34:03.356Z,24.90
2022-11-19T07:37:15.349Z,21.60
2022-11-19T07:40:27.385Z,22.18
2022-11-19T07:43:39.268Z,19.55
2022-11-19T07:46:54.440Z,18.40
2022-11-19T07:50:06.375Z,23.18
2022-11-19T07:53:18.145Z,17.93
2022-11-19T07:56:30.353Z,20.38
2022-11-19T07:59:42.261Z,20.23
2022-11-19T08:02:54.137Z,20.03
2022-11-19T08:06:08.573Z,88.50
2022-11-19T08:09:20.732Z,33.83
2022-11-19T08:12:33.211Z,23.00
2022-11-19T08:15:45.218Z,22.38
2022-11-19T08:18:57.302Z,23.60
2022-11-19T08:22:09.428Z,20.83
2022-11-19T08:25:21.728Z,21.00
2022-11-19T08:28:34.650Z,17.25
2022-11-19T08:31:47.640Z,18.45
2022-11-19T08:34:59.582Z,20.25
2022-11-19T08:38:11.548Z,21.40
2022-11-19T08:41:38.316Z,39.68
2022-11-19T08:44:50.123Z,101.70
2022-11-19T08:48:03.257Z,22.05
2022-11-19T08:51:16.641Z,16.70
2022-11-19T08:54:28.588Z,18.18
2022-11-19T08:57:40.464Z,22.15
2022-11-19T09:00:52.379Z,19.15
2022-11-19T09:04:04.800Z,19.73
2022-11-19T09:07:16.642Z,21.35
2022-11-19T09:10:28.699Z,26.88
2022-11-19T09:13:40.513Z,23.63
2022-11-19T09:16:52.492Z,20.90
2022-11-19T09:20:04.491Z,21.35
2022-11-19T09:23:16.786Z,20.75
2022-11-19T09:26:28.525Z,22.18
2022-11-19T09:29:40.213Z,25.05
2022-11-19T09:32:51.915Z,20.78
2022-11-19T09:36:03.965Z,21.15
2022-11-19T09:39:16.310Z,23.48
2022-11-19T09:42:34.577Z,28.65
2022-11-19T09:45:56.396Z,22.85
2022-11-19T09:49:14.127Z,36.95
2022-11-19T09:52:29.807Z,54.73
2022-11-19T09:55:45.837Z,28.23
2022-11-19T09:58:58.013Z,23.13
2022-11-19T10:02:20.457Z,23.48
2022-11-19T10:05:41.650Z,23.75
2022-11-19T10:09:10.416Z,28.90
2022-11-19T10:12:33.354Z,29.33
2022-11-19T10:15:58.647Z,25.63
2022-11-19T10:19:18.472Z,26.25
2022-11-19T10:22:36.036Z,28.38
2022-11-19T10:25:51.547Z,21.40
2022-11-19T10:29:04.807Z,26.60
2022-11-19T10:32:30.679Z,39.15
2022-11-19T10:35:47.153Z,24.13
2022-11-19T10:39:04.120Z,25.05
2022-11-19T10:45:34.848Z,42.05
2022-11-19T10:48:50.716Z,29.63
2022-11-19T10:52:03.506Z,22.58
2022-11-19T10:55:26.481Z,28.95
2022-11-19T10:58:43.524Z,29.33
2022-11-19T11:02:00.029Z,27.28
2022-11-19T11:05:19.622Z,21.98
2022-11-19T11:08:33.003Z,22.28
2022-11-19T11:12:01.289Z,23.35
2022-11-19T11:15:22.721Z,23.00
2022-11-19T11:18:39.453Z,19.88
2022-11-19T11:21:52.936Z,23.95
2022-11-19T11:25:07.431Z,25.55
2022-11-19T11:28:25.854Z,24.85
2022-11-19T11:31:43.770Z,23.90
2022-11-19T11:35:02.365Z,26.50
2022-11-19T11:38:16.403Z,25.48
2022-11-19T11:42:04.898Z,24.33
2022-11-19T11:45:02.318Z,28.80
2022-11-19T11:48:23.626Z,27.75
2022-11-19T11:51:42.960Z,28.75
2022-11-19T11:55:09.299Z,25.10
2022-11-19T11:58:36.327Z,41.60
2022-11-19T12:01:58.818Z,34.93
2022-11-19T12:05:19.775Z,28.55
2022-11-19T12:08:50.744Z,24.28
2022-11-19T12:12:10.706Z,24.83
2022-11-19T12:15:30.094Z,24.73
2022-11-19T12:18:51.142Z,24.08
2022-11-19T12:22:10.834Z,27.90
2022-11-19T12:25:36.434Z,25.80
2022-11-19T12:29:01.209Z,25.08
2022-11-19T12:32:35.004Z,24.83
2022-11-19T12:36:04.508Z,28.50
2022-11-19T12:39:26.715Z,23.00
2022-11-19T12:42:52.920Z,26.85
2022-11-19T12:46:11.867Z,27.85
2022-11-19T12:50:09.639Z,21.70
2022-11-19T12:53:54.871Z,24.68
2022-11-19T12:57:17.201Z,26.25
2022-11-19T13:00:32.356Z,23.73
2022-11-19T13:03:58.996Z,27.45
2022-11-19T13:07:16.952Z,31.68
2022-11-19T13:10:33.950Z,29.80
2022-11-19T13:13:50.279Z,27.13
2022-11-19T13:17:04.817Z,24.83
2022-11-19T13:20:25.118Z,30.28
2022-11-19T13:23:42.433Z,32.15
2022-11-19T13:26:54.681Z,26.70
2022-11-19T13:30:10.458Z,26.10
2022-11-19T13:33:28.257Z,28.85
2022-11-19T13:36:46.031Z,29.25
2022-11-19T13:40:04.328Z,31.38
2022-11-19T13:43:35.821Z,34.70
2022-11-19T13:46:52.377Z,34.83
2022-11-19T13:50:09.099Z,33.03
2022-11-19T13:53:27.554Z,33.68
2022-11-19T13:56:54.867Z,29.73
2022-11-19T14:03:43.471Z,29.33
2022-11-19T14:07:29.664Z,32.10
2022-11-19T14:10:44.000Z,29.45
2022-11-19T14:14:40.318Z,32.68
2022-11-19T14:18:12.642Z,29.68
2022-11-19T14:22:05.903Z,27.10
2022-11-19T14:25:32.422Z,32.43
2022-11-19T14:28:53.545Z,33.20
2022-11-19T14:32:36.056Z,30.55
2022-11-19T14:35:48.169Z,33.75
2022-11-19T14:39:03.311Z,32.23
2022-11-19T14:42:24.019Z,32.43
2022-11-19T14:45:36.166Z,35.85
2022-11-19T14:48:59.067Z,35.33
2022-11-19T14:52:25.144Z,47.80
2022-11-19T14:55:40.022Z,36.85
2022-11-19T14:59:01.438Z,36.25
2022-11-19T15:02:28.663Z,35.50
2022-11-19T15:05:45.311Z,38.23
2022-11-19T15:09:02.115Z,34.35
2022-11-19T15:12:14.519Z,33.68
2022-11-19T15:15:46.907Z,36.68
2022-11-19T15:19:35.722Z,35.53
2022-11-19T15:22:56.325Z,39.25
2022-11-19T15:26:19.444Z,40.45
2022-11-19T15:29:39.913Z,39.63
2022-11-19T15:33:27.157Z,41.88
2022-11-19T15:36:44.645Z,43.40
2022-11-19T15:40:00.484Z,40.38
2022-11-19T15:43:18.296Z,42.28
2022-11-19T15:46:40.265Z,41.08
2022-11-19T15:49:53.521Z,42.28
2022-11-19T15:53:20.222Z,44.25
2022-11-19T15:56:35.695Z,46.00
2022-11-19T15:59:48.814Z,49.03
2022-11-19T16:03:02.095Z,49.18
2022-11-19T16:06:20.935Z,50.38
2022-11-19T16:09:33.664Z,48.33
2022-11-19T16:13:13.110Z,54.00
2022-11-19T16:16:44.639Z,44.80
2022-11-19T16:20:13.221Z,48.05
2022-11-19T16:23:27.942Z,53.35
2022-11-19T16:26:45.485Z,56.33
2022-11-19T16:29:58.632Z,55.38
2022-11-19T16:33:10.759Z,56.68
2022-11-19T16:36:25.449Z,55.98
2022-11-19T16:39:39.191Z,57.40
2022-11-19T16:42:56.249Z,54.33
2022-11-19T16:46:10.696Z,54.08
2022-11-19T16:49:37.044Z,58.55
2022-11-19T16:52:49.940Z,58.13
2022-11-19T16:56:02.652Z,58.00
2022-11-19T16:59:24.732Z,54.95
2022-11-19T17:02:42.036Z,55.35
2022-11-19T17:05:56.626Z,49.55
2022-11-19T17:09:11.853Z,52.80
2022-11-19T17:12:37.378Z,52.00
2022-11-19T17:15:51.693Z,55.00
2022-11-19T17:19:03.425Z,58.68
2022-11-19T17:22:23.273Z,52.23
2022-11-19T17:25:35.549Z,54.98
2022-11-19T17:28:52.275Z,51.53
2022-11-19T17:32:05.376Z,54.00
2022-11-19T17:35:37.496Z,56.08
2022-11-19T17:38:49.646Z,60.20
2022-11-19T17:42:17.817Z,51.28
2022-11-19T17:45:29.621Z,52.85
2022-11-19T17:48:45.410Z,49.70
2022-11-19T17:51:57.215Z,55.78
2022-11-19T17:55:22.423Z,53.08
2022-11-19T17:58:34.629Z,55.48
2022-11-19T18:01:47.004Z,54.23
2022-11-19T18:04:59.331Z,59.53
2022-11-19T18:08:11.857Z,60.98
2022-11-19T18:11:26.832Z,65.25
2022-11-19T18:14:38.683Z,66.13
2022-11-19T18:17:50.701Z,66.15
2022-11-19T18:21:02.734Z,70.53
2022-11-19T18:24:18.171Z,71.48
2022-11-19T18:27:30.052Z,74.58
2022-11-19T18:30:43.043Z,68.35
2022-11-19T18:33:55.824Z,73.88
2022-11-19T18:37:07.553Z,65.08
2022-11-19T18:40:21.710Z,63.25
2022-11-19T18:43:47.993Z,64.30
2022-11-19T18:47:00.569Z,64.63
2022-11-19T18:50:17.368Z,65.30
2022-11-19T18:53:29.706Z,64.55
2022-11-19T18:56:41.474Z,60.43
2022-11-19T18:59:53.180Z,58.65
2022-11-19T19:03:05.686Z,63.65
2022-11-19T19:06:17.796Z,70.65
2022-11-19T19:09:29.608Z,69.00
2022-11-19T19:12:42.595Z,67.98
2022-11-19T19:15:54.332Z,70.83
2022-11-19T19:19:06.617Z,66.05
2022-11-19T19:22:19.592Z,60.00
2022-11-19T19:25:31.692Z,70.78
2022-11-19T19:28:45.107Z,67.85
2022-11-19T19:31:58.353Z,68.73
2022-11-19T19:35:11.805Z,72.93
2022-11-19T19:38:23.743Z,71.65
2022-11-19T19:41:35.616Z,75.53
2022-11-19T19:44:47.492Z,76.18
2022-11-19T19:47:59.338Z,72.15
2022-11-19T19:51:12.164Z,70.65
2022-11-19T19:54:24.423Z,63.23
2022-11-19T19:57:37.697Z,73.70
2022-11-19T20:00:49.593Z,74.08
2022-11-19T20:04:08.032Z,64.08
2022-11-19T20:07:19.942Z,72.65
2022-11-19T20:10:32.427Z,69.25
2022-11-19T20:13:45.909Z,74.70
2022-11-19T20:16:58.962Z,71.83
2022-11-19T20:20:13.440Z,72.43
2022-11-19T20:23:25.620Z,75.08
2022-11-19T20:26:38.786Z,69.83
2022-11-19T20:29:50.933Z,73.50
2022-11-19T20:33:02.856Z,78.03
2022-11-19T20:36:18.582Z,73.05
2022-11-19T20:39:30.438Z,81.23
2022-11-19T20:42:56.898Z,76.60
2022-11-19T20:46:17.581Z,74.03
2022-11-19T20:49:32.568Z,76.30
2022-11-19T20:52:44.605Z,79.05
2022-11-19T20:56:04.864Z,74.13
2022-11-19T21:02:24.139Z,77.05
2022-11-19T21:05:36.045Z,69.48
2022-11-19T21:08:48.271Z,76.93
2022-11-19T21:12:00.442Z,74.65
2022-11-19T21:15:14.791Z,85.20
2022-11-19T21:18:26.813Z,88.40
2022-11-19T21:21:39.029Z,77.73
2022-11-19T21:24:50.907Z,80.08
2022-11-19T21:28:02.930Z,87.80
2022-11-19T21:31:17.899Z,89.18
2022-11-19T21:34:29.801Z,90.20
2022-11-19T21:37:42.905Z,82.83
2022-11-19T21:40:59.150Z,83.28
2022-11-19T21:44:18.018Z,81.43
2022-11-19T21:47:27.615Z,87.48
2022-11-19T21:50:41.670Z,85.70
2022-11-19T21:53:53.659Z,94.53
2022-11-19T21:57:05.773Z,94.05
2022-11-19T22:00:21.554Z,93.13
2022-11-19T22:03:34.547Z,91.20
2022-11-19T22:06:46.895Z,93.25
2022-11-19T22:09:59.493Z,95.65
2022-11-19T22:13:11.826Z,88.33
2022-11-19T22:16:24.703Z,91.80
2022-11-19T22:19:36.415Z,98.15
2022-11-19T22:22:48.335Z,92.03
2022-11-19T22:26:00.252Z,92.90
2022-11-19T22:29:12.436Z,95.30
2022-11-19T22:32:24.193Z,90.35
2022-11-19T22:35:36.035Z,97.95
2022-11-19T22:38:47.937Z,98.98
2022-11-19T22:41:59.830Z,90.20
2022-11-19T22:45:13.997Z,91.95
2022-11-19T22:48:25.886Z,92.50
2022-11-19T22:51:37.692Z,88.75
2022-11-19T22:54:49.585Z,95.98
2022-11-19T22:58:01.379Z,98.93
2022-11-19T23:01:20.798Z,101.35
2022-11-19T23:04:32.769Z,101.58
2022-11-19T23:07:44.604Z,103.48
2022-11-19T23:11:02.698Z,99.55
2022-11-19T23:14:17.158Z,94.45
2022-11-19T23:17:29.061Z,93.28
2022-11-19T23:20:41.063Z,109.98
2022-11-19T23:23:53.799Z,99.50
2022-11-19T23:27:05.577Z,100.50
2022-11-19T23:30:18.912Z,102.00
2022-11-19T23:33:31.012Z,98.48
2022-11-19T23:36:45.123Z,96.53
2022-11-19T23:39:56.888Z,97.68
2022-11-19T23:43:09.633Z,97.58
2022-11-19T23:46:24.776Z,100.93
2022-11-19T23:49:36.447Z,96.63
2022-11-19T23:52:48.058Z,103.13
2022-11-19T23:55:59.840Z,98.98
2022-11-19T23:59:12.651Z,94.43
